createdAt,value
2023-03-24T00:01:56.144Z,99188.00
2023-03-24T00:04:24.878Z,99176.28
2023-03-24T00:06:52.344Z,99173.44
2023-03-24T00:09:18.950Z,99166.81
2023-03-24T00:11:45.568Z,99158.81
2023-03-24T00:14:12.253Z,99159.88
2023-03-24T00:16:42.535Z,99148.72
2023-03-24T00:19:10.717Z,99146.63
2023-03-24T00:21:37.588Z,99145.47
2023-03-24T00:24:07.481Z,99147.66
2023-03-24T00:26:37.524Z,99142.22
2023-03-24T00:29:05.413Z,99142.97
2023-03-24T00:31:32.196Z,99123.97
2023-03-24T00:33:59.326Z,99123.22
2023-03-24T00:36:28.892Z,99119.22
2023-03-24T00:38:56.359Z,99110.06
2023-03-24T00:41:25.134Z,99105.31
2023-03-24T00:43:55.207Z,99106.56
2023-03-24T00:46:27.818Z,99104.66
2023-03-24T00:48:57.944Z,99107.41
2023-03-24T00:51:24.802Z,99100.72
2023-03-24T00:53:57.784Z,99087.31
2023-03-24T00:56:26.934Z,99086.47
2023-03-24T00:58:57.649Z,99082.03
2023-03-24T01:01:29.312Z,99084.75
2023-03-24T01:03:56.921Z,99096.09
2023-03-24T01:06:24.482Z,99092.94
2023-03-24T01:08:53.820Z,99086.38
2023-03-24T01:11:25.300Z,99089.41
2023-03-24T01:13:53.322Z,99088.72
2023-03-24T01:16:20.633Z,99080.84
2023-03-24T01:18:47.081Z,99080.88
2023-03-24T01:21:13.537Z,99068.06
2023-03-24T01:23:41.963Z,99078.94
2023-03-24T01:26:10.525Z,99082.84
2023-03-24T01:28:40.928Z,99066.06
2023-03-24T01:31:09.805Z,99076.97
2023-03-24T01:33:37.931Z,99062.34
2023-03-24T01:36:06.252Z,99065.44
2023-03-24T01:38:33.094Z,99066.19
2023-03-24T01:40:59.490Z,99071.25
2023-03-24T01:43:31.057Z,99066.00
2023-03-24T01:46:21.794Z,99057.78
2023-03-24T01:48:55.194Z,99045.72
2023-03-24T01:51:35.422Z,99043.19
2023-03-24T01:54:09.819Z,99029.97
2023-03-24T01:56:39.823Z,99038.66
2023-03-24T01:59:10.853Z,99033.59
2023-03-24T02:01:37.693Z,99023.69
2023-03-24T02:04:06.680Z,99016.63
2023-03-24T02:06:36.130Z,99001.63
2023-03-24T02:09:04.190Z,98990.44
2023-03-24T02:11:32.687Z,98980.13
2023-03-24T02:13:59.516Z,98969.34
2023-03-24T02:16:57.110Z,98957.84
2023-03-24T02:19:26.519Z,98949.00
2023-03-24T02:22:20.696Z,98948.75
2023-03-24T02:25:18.149Z,98953.22
2023-03-24T02:28:16.991Z,98971.22
2023-03-24T02:31:06.405Z,98973.81
2023-03-24T02:34:06.306Z,98992.56
2023-03-24T02:37:18.777Z,98989.06
2023-03-24T02:40:00.876Z,98979.41
2023-03-24T02:43:21.762Z,98977.53
2023-03-24T02:46:15.587Z,98977.53
2023-03-24T02:48:49.154Z,98968.09
2023-03-24T02:51:42.049Z,98961.34
2023-03-24T02:54:17.624Z,98960.34
2023-03-24T02:56:46.973Z,98964.63
2023-03-24T02:59:31.227Z,98956.50
2023-03-24T03:02:06.991Z,98948.69
2023-03-24T03:04:40.136Z,98944.25
2023-03-24T03:07:10.511Z,98966.97
2023-03-24T03:09:41.506Z,98958.38
2023-03-24T03:12:12.362Z,98945.91
2023-03-24T03:14:54.697Z,98945.69
2023-03-24T03:17:30.455Z,98948.44
2023-03-24T03:20:05.176Z,98953.91
2023-03-24T03:22:39.142Z,98947.88
2023-03-24T03:25:07.049Z,98953.00
2023-03-24T03:27:39.078Z,98948.78
2023-03-24T03:30:13.240Z,98950.13
2023-03-24T03:32:44.943Z,98954.28
2023-03-24T03:35:18.388Z,98952.28
2023-03-24T03:37:57.217Z,98952.59
2023-03-24T03:40:32.454Z,98945.44
2023-03-24T03:42:58.949Z,98949.81
2023-03-24T03:45:25.499Z,98945.16
2023-03-24T03:47:52.225Z,98944.19
2023-03-24T03:50:19.095Z,98944.94
2023-03-24T03:52:45.862Z,98924.28
2023-03-24T03:55:13.246Z,98938.81
2023-03-24T03:57:40.980Z,98929.47
2023-03-24T04:00:15.164Z,98935.88
2023-03-24T04:02:53.807Z,98935.00
2023-03-24T04:05:33.101Z,98946.91
2023-03-24T04:08:33.671Z,98946.53
2023-03-24T04:11:16.996Z,98950.38
2023-03-24T04:13:45.068Z,98950.16
2023-03-24T04:16:34.989Z,98954.28
2023-03-24T04:19:23.000Z,98967.44
2023-03-24T04:22:24.014Z,98961.78
2023-03-24T04:24:50.434Z,98968.66
2023-03-24T04:27:39.936Z,98972.97
2023-03-24T04:30:37.206Z,98972.97
2023-03-24T04:33:22.319Z,98973.53
2023-03-24T04:35:57.644Z,98978.69
2023-03-24T04:38:27.837Z,98979.53
2023-03-24T04:40:56.589Z,98972.69
2023-03-24T04:43:27.996Z,98960.00
2023-03-24T04:45:57.873Z,98942.09
2023-03-24T04:48:26.172Z,98939.22
2023-03-24T04:50:58.546Z,98938.06
2023-03-24T04:53:25.444Z,98919.19
2023-03-24T04:56:22.174Z,98917.28
2023-03-24T04:58:48.759Z,98910.09
2023-03-24T05:01:17.182Z,98906.56
2023-03-24T05:03:45.877Z,98924.13
2023-03-24T05:06:13.571Z,98926.06
2023-03-24T05:08:41.239Z,98900.13
2023-03-24T05:11:07.724Z,98929.88
2023-03-24T05:13:34.132Z,98933.28
2023-03-24T05:16:00.556Z,98932.91
2023-03-24T05:18:27.070Z,98939.41
2023-03-24T05:20:54.386Z,98927.28
2023-03-24T05:23:20.954Z,98916.97
2023-03-24T05:25:48.198Z,98906.88
2023-03-24T05:28:14.590Z,98906.44
2023-03-24T05:30:41.357Z,98894.88
2023-03-24T05:33:07.869Z,98900.13
2023-03-24T05:35:34.350Z,98908.78
2023-03-24T05:38:00.751Z,98916.41
2023-03-24T05:40:27.144Z,98915.19
2023-03-24T05:42:53.620Z,98918.50
2023-03-24T05:45:20.197Z,98930.25
2023-03-24T05:47:47.940Z,98926.31
2023-03-24T05:50:14.565Z,98932.69
2023-03-24T05:52:41.463Z,98935.47
2023-03-24T05:55:09.443Z,98942.94
2023-03-24T05:57:36.589Z,98944.81
2023-03-24T06:00:11.093Z,98948.63
2023-03-24T06:02:37.807Z,98964.56
2023-03-24T06:05:04.635Z,98970.19
2023-03-24T06:07:32.132Z,98968.38
2023-03-24T06:10:02.837Z,98975.75
2023-03-24T06:12:30.880Z,98987.38
2023-03-24T06:14:57.638Z,98991.75
2023-03-24T06:17:24.747Z,98999.03
2023-03-24T06:19:51.651Z,99005.78
2023-03-24T06:22:18.956Z,99004.84
2023-03-24T06:24:47.121Z,99005.88
2023-03-24T06:27:14.225Z,99004.25
2023-03-24T06:29:42.442Z,99013.59
2023-03-24T06:32:09.394Z,99005.31
2023-03-24T06:34:38.016Z,99001.53
2023-03-24T06:37:05.307Z,99001.47
2023-03-24T06:39:31.778Z,99006.31
2023-03-24T06:41:58.111Z,99007.25
2023-03-24T06:44:24.656Z,99000.56
2023-03-24T06:46:51.120Z,99002.94
2023-03-24T06:49:17.543Z,99005.34
2023-03-24T06:51:43.942Z,98996.75
2023-03-24T06:54:10.382Z,98997.41
2023-03-24T06:56:36.810Z,98999.91
2023-03-24T06:59:03.244Z,98999.63
2023-03-24T07:01:30.104Z,99002.94
2023-03-24T07:03:56.683Z,99004.38
2023-03-24T07:06:23.152Z,99005.34
2023-03-24T07:08:50.015Z,99006.28
2023-03-24T07:11:17.394Z,99002.47
2023-03-24T07:13:43.806Z,99011.50
2023-03-24T07:16:10.220Z,99020.06
2023-03-24T07:18:36.930Z,99010.97
2023-03-24T07:21:03.886Z,99016.63
2023-03-24T07:23:30.975Z,99023.97
2023-03-24T07:25:57.742Z,99021.56
2023-03-24T07:28:24.219Z,99037.88
2023-03-24T07:30:52.093Z,99031.81
2023-03-24T07:33:20.821Z,99041.97
2023-03-24T07:35:47.331Z,99045.25
2023-03-24T07:38:14.001Z,99044.88
2023-03-24T07:40:40.347Z,99057.63
2023-03-24T07:43:06.800Z,99061.03
2023-03-24T07:45:33.805Z,99056.22
2023-03-24T07:48:02.171Z,99055.94
2023-03-24T07:50:29.878Z,99061.25
2023-03-24T07:52:59.391Z,99060.25
2023-03-24T07:55:27.080Z,99054.91
2023-03-24T07:57:53.696Z,99056.41
2023-03-24T08:00:21.082Z,99053.56
2023-03-24T08:02:52.002Z,99041.59
2023-03-24T08:05:23.020Z,99048.13
2023-03-24T08:07:55.476Z,99048.41
2023-03-24T08:10:24.621Z,99053.25
2023-03-24T08:12:51.391Z,99057.97
2023-03-24T08:15:18.434Z,99052.69
2023-03-24T08:17:45.522Z,99065.41
2023-03-24T08:20:14.331Z,99051.00
2023-03-24T08:22:43.332Z,99064.19
2023-03-24T08:25:12.121Z,99055.47
2023-03-24T08:27:40.113Z,99051.56
2023-03-24T08:30:08.461Z,99043.31
2023-03-24T08:32:35.602Z,99057.84
2023-03-24T08:35:04.846Z,99059.00
2023-03-24T08:37:31.487Z,99074.56
2023-03-24T08:39:58.584Z,99074.88
2023-03-24T08:42:25.985Z,99083.44
2023-03-24T08:44:52.432Z,99079.63
2023-03-24T08:47:18.888Z,99087.34
2023-03-24T08:49:45.526Z,99082.50
2023-03-24T08:52:12.025Z,99057.69
2023-03-24T08:54:38.538Z,99067.69
2023-03-24T08:57:05.007Z,99073.22
2023-03-24T08:59:31.368Z,99079.72
2023-03-24T09:01:57.785Z,99071.19
2023-03-24T09:04:24.214Z,99076.19
2023-03-24T09:06:53.517Z,99076.41
2023-03-24T09:09:19.866Z,99077.72
2023-03-24T09:11:46.675Z,99093.63
2023-03-24T09:14:13.101Z,99109.28
2023-03-24T09:16:40.534Z,99103.59
2023-03-24T09:19:07.417Z,99104.28
2023-03-24T09:21:33.831Z,99115.66
2023-03-24T09:24:00.913Z,99111.25
2023-03-24T09:26:27.311Z,99126.53
2023-03-24T09:28:53.678Z,99132.97
2023-03-24T09:31:20.415Z,99142.31
2023-03-24T09:33:47.176Z,99148.72
2023-03-24T09:36:13.619Z,99150.69
2023-03-24T09:38:40.093Z,99151.38
2023-03-24T09:41:16.961Z,99156.53
2023-03-24T09:44:00.870Z,99168.16
2023-03-24T09:47:16.961Z,99171.69
2023-03-24T09:49:44.298Z,99179.00
2023-03-24T09:52:14.529Z,99198.63
2023-03-24T09:54:58.650Z,99196.91
2023-03-24T09:57:37.612Z,99188.34
2023-03-24T10:00:21.713Z,99189.03
2023-03-24T10:02:51.578Z,99188.13
2023-03-24T10:05:27.524Z,99187.09
2023-03-24T10:08:04.732Z,99188.91
2023-03-24T10:10:42.143Z,99194.53
2023-03-24T10:13:28.598Z,99204.97
2023-03-24T10:16:06.720Z,99196.13
2023-03-24T10:19:06.965Z,99194.66
2023-03-24T10:21:36.160Z,99187.75
2023-03-24T10:24:14.331Z,99190.69
2023-03-24T10:26:46.609Z,99192.78
2023-03-24T10:29:34.821Z,99184.84
2023-03-24T10:32:20.779Z,99198.97
2023-03-24T10:34:52.347Z,99201.13
2023-03-24T10:37:18.988Z,99210.66
2023-03-24T10:39:45.494Z,99199.28
2023-03-24T10:42:33.813Z,99214.34
2023-03-24T10:45:01.586Z,99215.44
2023-03-24T10:47:32.971Z,99213.19
2023-03-24T10:50:12.541Z,99226.81
2023-03-24T10:52:48.584Z,99220.97
2023-03-24T10:55:19.191Z,99227.66
2023-03-24T10:57:49.751Z,99226.31
2023-03-24T11:00:19.647Z,99228.91
2023-03-24T11:02:56.596Z,99228.50
2023-03-24T11:05:30.533Z,99221.16
2023-03-24T11:08:12.263Z,99209.41
2023-03-24T11:10:39.162Z,99213.88
2023-03-24T11:13:18.399Z,99209.41
2023-03-24T11:16:12.044Z,99210.91
2023-03-24T11:18:54.036Z,99219.19
2023-03-24T11:21:20.580Z,99215.53
2023-03-24T11:23:47.023Z,99206.81
2023-03-24T11:26:28.251Z,99209.53
2023-03-24T11:28:58.403Z,99219.38
2023-03-24T11:31:30.510Z,99224.34
2023-03-24T11:34:20.204Z,99232.03
2023-03-24T11:36:50.873Z,99241.78
2023-03-24T11:39:23.869Z,99251.56
2023-03-24T11:42:03.159Z,99239.16
2023-03-24T11:44:38.673Z,99243.66
2023-03-24T11:47:11.437Z,99237.16
2023-03-24T11:49:44.922Z,99228.28
2023-03-24T11:52:24.853Z,99223.38
2023-03-24T11:54:51.306Z,99228.63
2023-03-24T11:57:29.363Z,99224.56
2023-03-24T12:00:09.977Z,99221.09
2023-03-24T12:03:01.839Z,99234.63
2023-03-24T12:05:35.955Z,99226.28
2023-03-24T12:08:11.899Z,99225.31
2023-03-24T12:10:49.319Z,99220.59
2023-03-24T12:13:32.436Z,99213.16
2023-03-24T12:16:11.902Z,99234.00
2023-03-24T12:18:55.935Z,99213.53
2023-03-24T12:21:40.880Z,99213.91
2023-03-24T12:24:43.895Z,99217.94
2023-03-24T12:27:37.324Z,99217.00
2023-03-24T12:30:26.432Z,99223.31
2023-03-24T12:33:06.725Z,99215.72
2023-03-24T12:36:02.537Z,99219.53
2023-03-24T12:38:48.839Z,99203.63
2023-03-24T12:41:27.946Z,99215.41
2023-03-24T12:44:23.776Z,99220.31
2023-03-24T12:47:02.306Z,99206.03
2023-03-24T12:49:38.320Z,99207.47
2023-03-24T12:52:49.068Z,99213.88
2023-03-24T12:55:17.972Z,99216.19
2023-03-24T12:57:49.881Z,99203.66
2023-03-24T13:00:24.565Z,99205.91
2023-03-24T13:02:58.499Z,99207.94
2023-03-24T13:05:31.687Z,99199.25
2023-03-24T13:08:03.559Z,99203.03
2023-03-24T13:10:34.553Z,99207.13
2023-03-24T13:13:30.165Z,99194.63
2023-03-24T13:16:15.329Z,99182.44
2023-03-24T13:18:48.902Z,99184.72
2023-03-24T13:21:18.101Z,99198.56
2023-03-24T13:23:57.471Z,99193.22
2023-03-24T13:26:35.892Z,99190.41
2023-03-24T13:29:05.208Z,99189.75
2023-03-24T13:31:38.034Z,99198.69
2023-03-24T13:34:09.123Z,99176.25
2023-03-24T13:37:01.518Z,99179.88
2023-03-24T13:39:30.351Z,99173.72
2023-03-24T13:41:59.053Z,99170.94
2023-03-24T13:44:30.659Z,99165.47
2023-03-24T13:47:12.146Z,99172.44
2023-03-24T13:49:40.771Z,99171.66
2023-03-24T13:52:23.042Z,99171.66
2023-03-24T13:54:53.156Z,99176.31
2023-03-24T13:57:20.665Z,99176.56
2023-03-24T14:00:11.591Z,99176.56
2023-03-24T14:02:43.846Z,99167.00
2023-03-24T14:05:26.734Z,99161.56
2023-03-24T14:07:59.380Z,99159.50
2023-03-24T14:10:25.808Z,99160.63
2023-03-24T14:12:55.557Z,99148.66
2023-03-24T14:15:34.678Z,99150.59
2023-03-24T14:18:24.634Z,99160.22
2023-03-24T14:20:57.397Z,99159.00
2023-03-24T14:23:42.194Z,99157.28
2023-03-24T14:26:14.786Z,99159.00
2023-03-24T14:28:50.212Z,99152.78
2023-03-24T14:31:16.577Z,99161.19
2023-03-24T14:33:45.220Z,99169.94
2023-03-24T14:36:14.439Z,99170.03
2023-03-24T14:38:43.216Z,99164.81
2023-03-24T14:41:16.227Z,99173.22
2023-03-24T14:43:43.106Z,99158.16
2023-03-24T14:46:21.801Z,99165.72
2023-03-24T14:49:02.166Z,99169.03
2023-03-24T14:51:43.278Z,99170.97
2023-03-24T14:54:19.011Z,99164.25
2023-03-24T14:56:51.736Z,99161.56
2023-03-24T14:59:46.852Z,99165.06
2023-03-24T15:02:33.110Z,99167.28
2023-03-24T15:05:14.920Z,99161.81
2023-03-24T15:07:42.977Z,99162.66
2023-03-24T15:10:17.163Z,99147.75
2023-03-24T15:12:48.481Z,99146.88
2023-03-24T15:15:18.159Z,99147.53
2023-03-24T15:17:45.710Z,99139.22
2023-03-24T15:20:21.329Z,99143.69
2023-03-24T15:22:47.761Z,99148.38
2023-03-24T15:25:15.553Z,99141.16
2023-03-24T15:27:50.430Z,99144.94
2023-03-24T15:30:17.220Z,99154.72
2023-03-24T15:32:46.082Z,99150.56
2023-03-24T15:35:16.844Z,99149.63
2023-03-24T15:37:48.146Z,99150.13
2023-03-24T15:40:26.767Z,99150.09
2023-03-24T15:42:59.151Z,99143.13
2023-03-24T15:45:28.557Z,99146.94
2023-03-24T15:47:56.523Z,99148.63
2023-03-24T15:50:55.181Z,99156.59
2023-03-24T15:53:27.393Z,99153.50
2023-03-24T15:56:11.806Z,99150.06
2023-03-24T15:58:48.943Z,99153.00
2023-03-24T16:01:19.759Z,99154.84
2023-03-24T16:06:23.080Z,99156.75
2023-03-24T16:08:49.634Z,99153.94
2023-03-24T16:11:16.557Z,99156.59
2023-03-24T16:13:45.479Z,99153.06
2023-03-24T16:16:14.771Z,99164.44
2023-03-24T16:18:43.616Z,99160.53
2023-03-24T16:21:19.805Z,99157.53
2023-03-24T16:23:47.421Z,99179.56
2023-03-24T16:26:24.817Z,99165.44
2023-03-24T16:28:52.737Z,99161.63
2023-03-24T16:31:30.796Z,99169.22
2023-03-24T16:33:58.168Z,99164.81
2023-03-24T16:36:28.379Z,99163.41
2023-03-24T16:38:56.384Z,99171.59
2023-03-24T16:41:23.528Z,99165.97
2023-03-24T16:43:50.410Z,99169.72
2023-03-24T16:46:25.877Z,99175.50
2023-03-24T16:48:53.112Z,99170.78
2023-03-24T16:51:19.488Z,99178.75
2023-03-24T16:53:46.557Z,99185.38
2023-03-24T16:56:15.461Z,99177.66
2023-03-24T16:58:41.968Z,99183.25
2023-03-24T17:01:29.997Z,99179.38
2023-03-24T17:03:58.695Z,99180.34
2023-03-24T17:06:27.305Z,99198.72
2023-03-24T17:08:53.825Z,99193.13
2023-03-24T17:11:26.278Z,99203.63
2023-03-24T17:13:54.296Z,99199.22
2023-03-24T17:16:20.844Z,99202.53
2023-03-24T17:18:47.275Z,99200.41
2023-03-24T17:21:16.546Z,99198.22
2023-03-24T17:23:46.693Z,99201.88
2023-03-24T17:26:13.227Z,99202.16
2023-03-24T17:28:40.156Z,99214.53
2023-03-24T17:31:06.599Z,99212.28
2023-03-24T17:33:33.526Z,99212.34
2023-03-24T17:35:59.930Z,99218.56
2023-03-24T17:38:27.030Z,99220.66
2023-03-24T17:41:04.281Z,99226.69
2023-03-24T17:43:31.004Z,99224.97
2023-03-24T17:46:01.466Z,99228.78
2023-03-24T17:48:28.536Z,99231.06
2023-03-24T17:50:56.720Z,99233.44
2023-03-24T17:53:27.536Z,99242.44
2023-03-24T17:55:59.154Z,99238.09
2023-03-24T17:58:30.683Z,99241.31
2023-03-24T18:00:58.308Z,99235.84
2023-03-24T18:03:25.880Z,99244.81
2023-03-24T18:05:52.406Z,99240.53
2023-03-24T18:08:19.004Z,99243.50
2023-03-24T18:10:45.406Z,99241.75
2023-03-24T18:13:12.158Z,99247.72
2023-03-24T18:15:41.990Z,99251.56
2023-03-24T18:18:09.000Z,99243.34
2023-03-24T18:20:36.592Z,99246.97
2023-03-24T18:23:03.129Z,99247.63
2023-03-24T18:25:29.535Z,99250.19
2023-03-24T18:27:56.234Z,99250.19
2023-03-24T18:30:22.752Z,99255.75
2023-03-24T18:32:49.449Z,99264.16
2023-03-24T18:35:18.403Z,99262.63
2023-03-24T18:37:45.111Z,99264.63
2023-03-24T18:40:11.878Z,99265.28
2023-03-24T18:42:38.495Z,99265.09
2023-03-24T18:45:06.899Z,99277.53
2023-03-24T18:47:33.763Z,99278.69
2023-03-24T18:50:00.657Z,99270.72
2023-03-24T18:52:27.258Z,99289.88
2023-03-24T18:54:54.142Z,99293.78
2023-03-24T18:57:21.332Z,99310.34
2023-03-24T18:59:47.845Z,99306.69
2023-03-24T19:02:15.518Z,99309.06
2023-03-24T19:04:43.136Z,99304.59
2023-03-24T19:07:14.575Z,99301.59
2023-03-24T19:09:42.499Z,99296.94
2023-03-24T19:12:09.427Z,99293.97
2023-03-24T19:14:36.489Z,99288.13
2023-03-24T19:17:02.923Z,99287.91
2023-03-24T19:19:31.273Z,99280.84
2023-03-24T19:21:58.530Z,99288.25
2023-03-24T19:24:26.394Z,99291.88
2023-03-24T19:26:54.102Z,99284.03
2023-03-24T19:29:21.415Z,99293.88
2023-03-24T19:31:48.588Z,99287.78
2023-03-24T19:34:15.631Z,99298.31
2023-03-24T19:36:45.373Z,99289.88
2023-03-24T19:39:13.724Z,99293.97
2023-03-24T19:41:41.146Z,99296.75
2023-03-24T19:44:07.790Z,99286.78
2023-03-24T19:46:34.313Z,99283.25
2023-03-24T19:49:00.977Z,99290.75
2023-03-24T19:51:27.416Z,99305.00
2023-03-24T19:53:53.811Z,99296.75
2023-03-24T19:56:20.684Z,99295.88
2023-03-24T19:58:47.175Z,99299.41
2023-03-24T20:01:13.686Z,99294.44
2023-03-24T20:03:40.250Z,99294.97
2023-03-24T20:06:10.293Z,99299.97
2023-03-24T20:08:37.795Z,99291.59
2023-03-24T20:11:11.235Z,99301.50
2023-03-24T20:13:37.809Z,99300.03
2023-03-24T20:16:04.591Z,99300.03
2023-03-24T20:18:31.072Z,99307.47
2023-03-24T20:20:59.835Z,99300.66
2023-03-24T20:23:26.259Z,99303.25
2023-03-24T20:25:52.902Z,99311.84
2023-03-24T20:28:19.558Z,99312.13
2023-03-24T20:30:46.016Z,99313.31
2023-03-24T20:33:12.881Z,99324.56
2023-03-24T20:35:39.779Z,99327.63
2023-03-24T20:38:06.352Z,99317.13
2023-03-24T20:40:32.842Z,99312.69
2023-03-24T20:42:59.232Z,99331.91
2023-03-24T20:45:26.812Z,99322.44
2023-03-24T20:47:53.351Z,99318.22
2023-03-24T20:50:20.053Z,99326.56
2023-03-24T20:52:47.305Z,99323.78
2023-03-24T20:55:14.579Z,99319.19
2023-03-24T20:57:41.369Z,99329.75
2023-03-24T21:00:13.453Z,99323.97
2023-03-24T21:02:43.761Z,99324.44
2023-03-24T21:05:10.883Z,99326.25
2023-03-24T21:07:38.213Z,99328.22
2023-03-24T21:10:06.530Z,99323.03
2023-03-24T21:12:33.807Z,99335.44
2023-03-24T21:15:00.359Z,99350.31
2023-03-24T21:17:31.917Z,99363.25
2023-03-24T21:20:13.087Z,99350.81
2023-03-24T21:22:56.051Z,99358.03
2023-03-24T21:25:28.797Z,99361.91
2023-03-24T21:27:56.142Z,99379.59
2023-03-24T21:30:24.238Z,99385.34
2023-03-24T21:32:52.603Z,99378.88
2023-03-24T21:35:20.056Z,99362.22
2023-03-24T21:37:47.494Z,99333.16
2023-03-24T21:40:20.008Z,99344.75
2023-03-24T21:42:49.803Z,99356.34
2023-03-24T21:45:18.837Z,99345.31
2023-03-24T21:47:47.167Z,99357.69
2023-03-24T21:50:23.376Z,99347.00
2023-03-24T21:52:51.599Z,99351.81
2023-03-24T21:55:18.272Z,99345.78
2023-03-24T21:57:45.411Z,99344.91
2023-03-24T22:00:14.940Z,99341.03
2023-03-24T22:02:47.337Z,99341.03
2023-03-24T22:05:15.824Z,99341.72
2023-03-24T22:07:42.786Z,99342.75
2023-03-24T22:10:13.354Z,99351.88
2023-03-24T22:12:40.628Z,99348.56
2023-03-24T22:15:09.525Z,99349.72
2023-03-24T22:17:36.835Z,99349.28
2023-03-24T22:20:05.988Z,99347.41
2023-03-24T22:22:33.725Z,99335.84
2023-03-24T22:25:00.166Z,99333.47
2023-03-24T22:27:26.559Z,99341.00
2023-03-24T22:29:52.932Z,99342.44
2023-03-24T22:32:19.348Z,99348.44
2023-03-24T22:34:45.829Z,99352.50
2023-03-24T22:37:12.211Z,99353.97
2023-03-24T22:39:38.665Z,99358.53
2023-03-24T22:42:05.075Z,99369.56
2023-03-24T22:44:32.092Z,99376.03
2023-03-24T22:47:02.588Z,99391.28
2023-03-24T22:49:30.467Z,99395.41
2023-03-24T22:51:56.963Z,99407.00
2023-03-24T22:54:23.711Z,99409.56
2023-03-24T22:56:50.270Z,99397.34
2023-03-24T22:59:16.802Z,99397.53
2023-03-24T23:01:43.448Z,99391.84
2023-03-24T23:04:09.986Z,99389.19
2023-03-24T23:06:36.728Z,99385.16
2023-03-24T23:09:04.873Z,99367.03
2023-03-24T23:11:32.100Z,99368.56
2023-03-24T23:14:04.338Z,99360.19
2023-03-24T23:16:39.697Z,99362.31
2023-03-24T23:19:07.386Z,99365.31
2023-03-24T23:21:34.135Z,99376.03
2023-03-24T23:24:01.012Z,99377.16
2023-03-24T23:26:30.041Z,99382.47
2023-03-24T23:28:57.224Z,99385.84
2023-03-24T23:31:27.488Z,99385.97
2023-03-24T23:33:56.404Z,99391.78
2023-03-24T23:36:26.046Z,99387.47
2023-03-24T23:38:56.191Z,99395.50
2023-03-24T23:41:23.047Z,99395.44
2023-03-24T23:43:50.871Z,99382.75
2023-03-24T23:46:18.329Z,99381.25
2023-03-24T23:48:44.919Z,99379.50
2023-03-24T23:51:11.846Z,99390.91
2023-03-24T23:53:38.779Z,99383.78
2023-03-24T23:56:07.591Z,99381.13
2023-03-24T23:58:39.304Z,99381.25
